sensor_id;sensor_type;location;lat;lon;timestamp;P1;P2;P0
78316;PMS7003;67572;50.930;18.276;2023-09-19T00:00:29;31.00;29.00;22.67
78316;PMS7003;67572;50.930;18.276;2023-09-19T00:03:32;24.67;24.00;21.00
78316;PMS7003;67572;50.930;18.276;2023-09-19T00:06:39;22.00;18.33;17.00
78316;PMS7003;67572;50.930;18.276;2023-09-19T00:09:43;24.67;24.67;21.00
78316;PMS7003;67572;50.930;18.276;2023-09-19T00:12:47;21.67;21.67;18.00
78316;PMS7003;67572;50.930;18.276;2023-09-19T00:15:51;27.67;26.00;24.33
78316;PMS7003;67572;50.930;18.276;2023-09-19T00:18:57;28.67;28.67;22.00
78316;PMS7003;67572;50.930;18.276;2023-09-19T00:22:01;27.67;27.67;26.00
78316;PMS7003;67572;50.930;18.276;2023-09-19T00:25:05;32.00;32.00;26.00
78316;PMS7003;67572;50.930;18.276;2023-09-19T00:28:10;31.33;29.00;24.00
78316;PMS7003;67572;50.930;18.276;2023-09-19T00:31:13;24.33;24.33;21.00
78316;PMS7003;67572;50.930;18.276;2023-09-19T00:34:17;28.67;28.67;24.00
78316;PMS7003;67572;50.930;18.276;2023-09-19T00:37:20;25.00;25.00;21.33
78316;PMS7003;67572;50.930;18.276;2023-09-19T00:40:23;25.00;25.00;21.00
78316;PMS7003;67572;50.930;18.276;2023-09-19T00:43:29;25.67;25.67;19.67
78316;PMS7003;67572;50.930;18.276;2023-09-19T00:46:37;32.00;31.33;24.33
78316;PMS7003;67572;50.930;18.276;2023-09-19T00:49:42;22.00;22.00;20.33
78316;PMS7003;67572;50.930;18.276;2023-09-19T00:52:46;31.00;29.00;23.67
78316;PMS7003;67572;50.930;18.276;2023-09-19T00:55:51;25.00;25.00;20.67
78316;PMS7003;67572;50.930;18.276;2023-09-19T00:58:56;26.67;26.33;21.67
78316;PMS7003;67572;50.930;18.276;2023-09-19T01:02:00;25.33;24.33;20.67
78316;PMS7003;67572;50.930;18.276;2023-09-19T01:05:06;24.00;24.00;20.67
78316;PMS7003;67572;50.930;18.276;2023-09-19T01:08:12;27.33;27.33;22.33
78316;PMS7003;67572;50.930;18.276;2023-09-19T01:11:20;28.00;28.00;24.00
78316;PMS7003;67572;50.930;18.276;2023-09-19T01:14:33;28.00;24.67;21.00
78316;PMS7003;67572;50.930;18.276;2023-09-19T01:17:43;24.00;24.00;21.67
78316;PMS7003;67572;50.930;18.276;2023-09-19T01:20:53;25.33;25.33;22.33
78316;PMS7003;67572;50.930;18.276;2023-09-19T01:24:10;25.67;25.67;22.33
78316;PMS7003;67572;50.930;18.276;2023-09-19T01:27:36;33.00;29.33;21.33
78316;PMS7003;67572;50.930;18.276;2023-09-19T01:31:09;28.00;28.00;22.67
78316;PMS7003;67572;50.930;18.276;2023-09-19T01:34:14;27.33;27.33;23.33
78316;PMS7003;67572;50.930;18.276;2023-09-19T01:37:18;30.33;29.67;24.00
78316;PMS7003;67572;50.930;18.276;2023-09-19T01:40:27;27.33;27.33;24.00
78316;PMS7003;67572;50.930;18.276;2023-09-19T01:43:31;32.00;31.00;24.00
78316;PMS7003;67572;50.930;18.276;2023-09-19T01:46:41;24.00;24.00;20.33
78316;PMS7003;67572;50.930;18.276;2023-09-19T01:49:48;27.67;25.33;21.33
78316;PMS7003;67572;50.930;18.276;2023-09-19T01:53:02;31.00;31.00;25.67
78316;PMS7003;67572;50.930;18.276;2023-09-19T01:56:12;25.67;25.00;21.67
78316;PMS7003;67572;50.930;18.276;2023-09-19T01:59:25;28.33;25.33;22.00
78316;PMS7003;67572;50.930;18.276;2023-09-19T02:02:37;32.67;31.67;25.67
78316;PMS7003;67572;50.930;18.276;2023-09-19T02:05:41;28.67;28.67;25.33
78316;PMS7003;67572;50.930;18.276;2023-09-19T02:08:51;31.33;31.33;27.33
78316;PMS7003;67572;50.930;18.276;2023-09-19T02:11:57;27.67;27.67;22.00
78316;PMS7003;67572;50.930;18.276;2023-09-19T02:15:01;24.67;24.67;21.33
78316;PMS7003;67572;50.930;18.276;2023-09-19T02:18:06;22.00;21.00;18.00
78316;PMS7003;67572;50.930;18.276;2023-09-19T02:21:09;29.00;29.00;24.00
78316;PMS7003;67572;50.930;18.276;2023-09-19T02:24:14;35.00;31.67;20.00
78316;PMS7003;67572;50.930;18.276;2023-09-19T02:27:18;30.67;30.67;24.67
78316;PMS7003;67572;50.930;18.276;2023-09-19T02:30:21;35.33;31.00;25.00
78316;PMS7003;67572;50.930;18.276;2023-09-19T02:33:29;28.67;28.67;22.00
78316;PMS7003;67572;50.930;18.276;2023-09-19T02:36:34;27.67;27.67;24.00
78316;PMS7003;67572;50.930;18.276;2023-09-19T02:39:38;31.00;31.00;27.00
78316;PMS7003;67572;50.930;18.276;2023-09-19T02:42:42;30.33;29.33;23.00
78316;PMS7003;67572;50.930;18.276;2023-09-19T02:45:50;35.00;34.00;27.00
78316;PMS7003;67572;50.930;18.276;2023-09-19T02:48:56;30.67;27.67;24.67
78316;PMS7003;67572;50.930;18.276;2023-09-19T02:52:00;27.00;26.33;22.33
78316;PMS7003;67572;50.930;18.276;2023-09-19T02:55:05;28.33;28.33;25.33
78316;PMS7003;67572;50.930;18.276;2023-09-19T02:58:11;34.67;33.67;27.00
78316;PMS7003;67572;50.930;18.276;2023-09-19T03:01:17;25.33;24.67;22.67
78316;PMS7003;67572;50.930;18.276;2023-09-19T03:04:22;30.67;28.67;24.33
78316;PMS7003;67572;50.930;18.276;2023-09-19T03:07:27;35.33;33.00;24.00
78316;PMS7003;67572;50.930;18.276;2023-09-19T03:10:31;32.33;32.33;27.33
78316;PMS7003;67572;50.930;18.276;2023-09-19T03:13:34;32.33;30.00;25.00
78316;PMS7003;67572;50.930;18.276;2023-09-19T03:16:40;27.33;25.67;18.00
78316;PMS7003;67572;50.930;18.276;2023-09-19T03:19:49;39.67;34.00;27.67
78316;PMS7003;67572;50.930;18.276;2023-09-19T03:22:53;34.33;34.33;28.33
78316;PMS7003;67572;50.930;18.276;2023-09-19T03:25:57;31.33;30.00;25.00
78316;PMS7003;67572;50.930;18.276;2023-09-19T03:29:03;34.67;31.00;24.67
78316;PMS7003;67572;50.930;18.276;2023-09-19T03:32:09;17.67;17.67;12.33
78316;PMS7003;67572;50.930;18.276;2023-09-19T03:35:15;37.00;34.67;25.67
78316;PMS7003;67572;50.930;18.276;2023-09-19T03:38:19;34.33;31.67;25.33
78316;PMS7003;67572;50.930;18.276;2023-09-19T03:41:23;26.33;26.33;22.67
78316;PMS7003;67572;50.930;18.276;2023-09-19T03:44:27;17.67;17.67;17.33
78316;PMS7003;67572;50.930;18.276;2023-09-19T03:47:30;28.00;28.00;23.00
78316;PMS7003;67572;50.930;18.276;2023-09-19T03:50:37;27.00;27.00;20.00
78316;PMS7003;67572;50.930;18.276;2023-09-19T03:53:41;18.67;17.00;16.33
78316;PMS7003;67572;50.930;18.276;2023-09-19T03:56:44;13.67;13.33;11.67
78316;PMS7003;67572;50.930;18.276;2023-09-19T03:59:48;17.67;17.67;15.00
78316;PMS7003;67572;50.930;18.276;2023-09-19T04:02:51;21.00;20.00;14.00
78316;PMS7003;67572;50.930;18.276;2023-09-19T04:05:59;17.67;15.00;14.00
78316;PMS7003;67572;50.930;18.276;2023-09-19T04:09:03;12.00;11.00;8.67
78316;PMS7003;67572;50.930;18.276;2023-09-19T04:12:08;14.33;14.33;13.00
78316;PMS7003;67572;50.930;18.276;2023-09-19T04:15:11;12.67;12.67;11.00
78316;PMS7003;67572;50.930;18.276;2023-09-19T04:18:15;12.33;11.00;10.00
78316;PMS7003;67572;50.930;18.276;2023-09-19T04:21:19;16.67;11.00;11.00
78316;PMS7003;67572;50.930;18.276;2023-09-19T04:24:23;14.00;14.00;11.00
78316;PMS7003;67572;50.930;18.276;2023-09-19T04:27:26;12.33;12.33;10.67
78316;PMS7003;67572;50.930;18.276;2023-09-19T04:30:30;10.67;10.33;10.00
78316;PMS7003;67572;50.930;18.276;2023-09-19T04:33:33;10.00;10.00;8.00
78316;PMS7003;67572;50.930;18.276;2023-09-19T04:36:38;10.00;10.00;7.33
78316;PMS7003;67572;50.930;18.276;2023-09-19T04:39:42;6.33;6.33;6.33
78316;PMS7003;67572;50.930;18.276;2023-09-19T04:42:45;8.00;8.00;7.67
78316;PMS7003;67572;50.930;18.276;2023-09-19T04:45:58;5.00;5.00;5.00
78316;PMS7003;67572;50.930;18.276;2023-09-19T04:49:02;5.00;5.00;4.67
78316;PMS7003;67572;50.930;18.276;2023-09-19T04:52:06;2.67;2.67;2.67
78316;PMS7003;67572;50.930;18.276;2023-09-19T04:55:10;6.33;5.67;5.00
78316;PMS7003;67572;50.930;18.276;2023-09-19T04:58:18;11.33;11.00;10.00
78316;PMS7003;67572;50.930;18.276;2023-09-19T05:01:22;5.00;4.00;4.00
78316;PMS7003;67572;50.930;18.276;2023-09-19T05:04:25;1.00;1.00;1.00
78316;PMS7003;67572;50.930;18.276;2023-09-19T05:07:31;7.00;7.00;7.00
78316;PMS7003;67572;50.930;18.276;2023-09-19T05:10:35;7.33;7.33;7.00
78316;PMS7003;67572;50.930;18.276;2023-09-19T05:13:40;7.33;4.00;4.00
78316;PMS7003;67572;50.930;18.276;2023-09-19T05:16:44;4.67;3.33;2.67
78316;PMS7003;67572;50.930;18.276;2023-09-19T05:19:48;4.00;4.00;2.67
78316;PMS7003;67572;50.930;18.276;2023-09-19T05:22:58;5.00;4.00;4.00
78316;PMS7003;67572;50.930;18.276;2023-09-19T05:26:04;5.00;4.00;4.00
78316;PMS7003;67572;50.930;18.276;2023-09-19T05:29:07;6.33;4.67;4.33
78316;PMS7003;67572;50.930;18.276;2023-09-19T05:32:10;2.00;2.00;2.00
78316;PMS7003;67572;50.930;18.276;2023-09-19T05:35:14;4.33;4.00;2.00
78316;PMS7003;67572;50.930;18.276;2023-09-19T05:38:18;2.00;2.00;2.00
78316;PMS7003;67572;50.930;18.276;2023-09-19T05:41:22;5.00;4.00;3.33
78316;PMS7003;67572;50.930;18.276;2023-09-19T05:44:25;1.33;1.33;1.33
78316;PMS7003;67572;50.930;18.276;2023-09-19T05:47:28;1.00;1.00;1.00
78316;PMS7003;67572;50.930;18.276;2023-09-19T05:50:32;2.00;2.00;2.00
78316;PMS7003;67572;50.930;18.276;2023-09-19T05:53:37;5.00;3.33;2.00
78316;PMS7003;67572;50.930;18.276;2023-09-19T05:56:40;2.00;2.00;2.00
78316;PMS7003;67572;50.930;18.276;2023-09-19T05:59:44;2.00;2.00;2.00
78316;PMS7003;67572;50.930;18.276;2023-09-19T06:02:48;2.00;1.00;1.00
78316;PMS7003;67572;50.930;18.276;2023-09-19T06:05:53;0.75;0.75;0.75
78316;PMS7003;67572;50.930;18.276;2023-09-19T06:09:00;0.00;0.00;0.00
78316;PMS7003;67572;50.930;18.276;2023-09-19T06:12:04;1.00;1.00;1.00
78316;PMS7003;67572;50.930;18.276;2023-09-19T06:15:08;0.00;0.00;0.00
78316;PMS7003;67572;50.930;18.276;2023-09-19T06:18:14;0.00;0.00;0.00
78316;PMS7003;67572;50.930;18.276;2023-09-19T06:21:21;0.00;0.00;0.00
78316;PMS7003;67572;50.930;18.276;2023-09-19T06:24:26;0.00;0.00;0.00
78316;PMS7003;67572;50.930;18.276;2023-09-19T06:27:30;0.50;0.50;0.50
78316;PMS7003;67572;50.930;18.276;2023-09-19T06:30:33;0.50;0.50;0.50
78316;PMS7003;67572;50.930;18.276;2023-09-19T06:33:37;0.00;0.00;0.00
78316;PMS7003;67572;50.930;18.276;2023-09-19T06:36:41;0.00;0.00;0.00
78316;PMS7003;67572;50.930;18.276;2023-09-19T06:39:52;0.00;0.00;0.00
78316;PMS7003;67572;50.930;18.276;2023-09-19T06:42:55;0.75;0.00;0.00
78316;PMS7003;67572;50.930;18.276;2023-09-19T06:45:58;1.50;0.00;0.00
78316;PMS7003;67572;50.930;18.276;2023-09-19T06:49:02;0.50;0.00;0.00
78316;PMS7003;67572;50.930;18.276;2023-09-19T06:52:07;0.00;0.00;0.00
78316;PMS7003;67572;50.930;18.276;2023-09-19T06:55:12;1.00;0.00;0.00
78316;PMS7003;67572;50.930;18.276;2023-09-19T06:58:17;0.00;0.00;0.00
78316;PMS7003;67572;50.930;18.276;2023-09-19T07:01:22;0.00;0.00;0.00
78316;PMS7003;67572;50.930;18.276;2023-09-19T07:04:27;0.00;0.00;0.00
78316;PMS7003;67572;50.930;18.276;2023-09-19T07:07:30;0.50;0.00;0.00
78316;PMS7003;67572;50.930;18.276;2023-09-19T07:10:38;0.00;0.00;0.00
78316;PMS7003;67572;50.930;18.276;2023-09-19T07:13:42;0.00;0.00;0.00
78316;PMS7003;67572;50.930;18.276;2023-09-19T07:16:47;1.00;0.00;0.00
78316;PMS7003;67572;50.930;18.276;2023-09-19T07:19:51;0.00;0.00;0.00
78316;PMS7003;67572;50.930;18.276;2023-09-19T07:22:54;0.00;0.00;0.00
78316;PMS7003;67572;50.930;18.276;2023-09-19T07:25:59;0.00;0.00;0.00
78316;PMS7003;67572;50.930;18.276;2023-09-19T07:29:02;29.33;28.00;15.00
78316;PMS7003;67572;50.930;18.276;2023-09-19T07:32:06;0.00;0.00;0.00
78316;PMS7003;67572;50.930;18.276;2023-09-19T07:35:09;0.00;0.00;0.00
78316;PMS7003;67572;50.930;18.276;2023-09-19T07:38:13;0.00;0.00;0.00
78316;PMS7003;67572;50.930;18.276;2023-09-19T07:41:18;0.00;0.00;0.00
78316;PMS7003;67572;50.930;18.276;2023-09-19T07:44:22;0.00;0.00;0.00
78316;PMS7003;67572;50.930;18.276;2023-09-19T07:47:27;0.00;0.00;0.00
78316;PMS7003;67572;50.930;18.276;2023-09-19T07:50:33;0.25;0.25;0.25
78316;PMS7003;67572;50.930;18.276;2023-09-19T07:53:38;0.00;0.00;0.00
78316;PMS7003;67572;50.930;18.276;2023-09-19T07:56:43;1.00;0.20;0.20
78316;PMS7003;67572;50.930;18.276;2023-09-19T07:59:47;0.00;0.00;0.00
78316;PMS7003;67572;50.930;18.276;2023-09-19T08:02:50;0.00;0.00;0.00
78316;PMS7003;67572;50.930;18.276;2023-09-19T08:06:02;2.25;1.00;1.00
78316;PMS7003;67572;50.930;18.276;2023-09-19T08:09:06;0.00;0.00;0.00
78316;PMS7003;67572;50.930;18.276;2023-09-19T08:12:14;0.00;0.00;0.00
78316;PMS7003;67572;50.930;18.276;2023-09-19T08:15:19;0.00;0.00;0.00
78316;PMS7003;67572;50.930;18.276;2023-09-19T08:18:22;1.00;0.00;0.00
78316;PMS7003;67572;50.930;18.276;2023-09-19T08:21:26;0.25;0.00;0.00
78316;PMS7003;67572;50.930;18.276;2023-09-19T08:24:31;0.25;0.25;0.25
78316;PMS7003;67572;50.930;18.276;2023-09-19T08:27:37;0.75;0.00;0.00
78316;PMS7003;67572;50.930;18.276;2023-09-19T08:30:40;24.00;24.00;21.33
78316;PMS7003;67572;50.930;18.276;2023-09-19T08:33:43;0.50;0.00;0.00
78316;PMS7003;67572;50.930;18.276;2023-09-19T08:36:52;0.00;0.00;0.00
78316;PMS7003;67572;50.930;18.276;2023-09-19T08:39:58;0.00;0.00;0.00
78316;PMS7003;67572;50.930;18.276;2023-09-19T08:43:03;1.00;0.00;0.00
78316;PMS7003;67572;50.930;18.276;2023-09-19T08:46:09;1.00;0.00;0.00
78316;PMS7003;67572;50.930;18.276;2023-09-19T08:49:17;0.00;0.00;0.00
78316;PMS7003;67572;50.930;18.276;2023-09-19T08:52:32;0.00;0.00;0.00
78316;PMS7003;67572;50.930;18.276;2023-09-19T08:55:42;0.00;0.00;0.00
78316;PMS7003;67572;50.930;18.276;2023-09-19T08:58:53;0.00;0.00;0.00
78316;PMS7003;67572;50.930;18.276;2023-09-19T09:02:03;13.00;13.00;13.00
78316;PMS7003;67572;50.930;18.276;2023-09-19T09:05:07;2.00;1.00;1.00
78316;PMS7003;67572;50.930;18.276;2023-09-19T09:08:12;0.00;0.00;0.00
78316;PMS7003;67572;50.930;18.276;2023-09-19T09:11:16;1.25;0.75;0.75
78316;PMS7003;67572;50.930;18.276;2023-09-19T09:14:21;2.75;2.75;2.50
78316;PMS7003;67572;50.930;18.276;2023-09-19T09:17:26;3.75;1.00;1.00
78316;PMS7003;67572;50.930;18.276;2023-09-19T09:20:30;1.00;1.00;1.00
78316;PMS7003;67572;50.930;18.276;2023-09-19T09:23:33;1.50;1.50;1.50
78316;PMS7003;67572;50.930;18.276;2023-09-19T09:26:43;0.00;0.00;0.00
78316;PMS7003;67572;50.930;18.276;2023-09-19T09:29:48;0.00;0.00;0.00
78316;PMS7003;67572;50.930;18.276;2023-09-19T09:32:58;24.00;24.00;24.00
78316;PMS7003;67572;50.930;18.276;2023-09-19T09:36:13;3.00;1.00;0.00
78316;PMS7003;67572;50.930;18.276;2023-09-19T09:39:28;0.50;0.50;0.50
78316;PMS7003;67572;50.930;18.276;2023-09-19T09:42:34;0.00;0.00;0.00
78316;PMS7003;67572;50.930;18.276;2023-09-19T09:45:42;0.00;0.00;0.00
78316;PMS7003;67572;50.930;18.276;2023-09-19T09:48:55;1.50;1.50;1.00
78316;PMS7003;67572;50.930;18.276;2023-09-19T09:52:17;5.50;3.00;3.00
78316;PMS7003;67572;50.930;18.276;2023-09-19T09:55:26;1.25;0.25;0.25
78316;PMS7003;67572;50.930;18.276;2023-09-19T09:58:29;4.00;1.00;1.00
78316;PMS7003;67572;50.930;18.276;2023-09-19T10:01:47;1.00;1.00;1.00
78316;PMS7003;67572;50.930;18.276;2023-09-19T10:04:51;1.00;1.00;1.00
78316;PMS7003;67572;50.930;18.276;2023-09-19T10:08:10;7.00;1.00;1.00
78316;PMS7003;67572;50.930;18.276;2023-09-19T10:11:15;4.50;3.00;3.00
78316;PMS7003;67572;50.930;18.276;2023-09-19T10:14:20;0.00;0.00;0.00
78316;PMS7003;67572;50.930;18.276;2023-09-19T10:17:32;1.00;1.00;1.00
78316;PMS7003;67572;50.930;18.276;2023-09-19T10:20:39;1.00;1.00;1.00
78316;PMS7003;67572;50.930;18.276;2023-09-19T10:23:46;2.00;0.25;0.25
78316;PMS7003;67572;50.930;18.276;2023-09-19T10:26:49;18.67;17.33;17.33
78316;PMS7003;67572;50.930;18.276;2023-09-19T10:29:54;0.00;0.00;0.00
78316;PMS7003;67572;50.930;18.276;2023-09-19T10:33:03;4.00;4.00;4.00
78316;PMS7003;67572;50.930;18.276;2023-09-19T10:36:07;2.25;1.00;1.00
78316;PMS7003;67572;50.930;18.276;2023-09-19T10:39:14;2.75;2.00;2.00
78316;PMS7003;67572;50.930;18.276;2023-09-19T10:42:21;2.25;1.75;1.75
78316;PMS7003;67572;50.930;18.276;2023-09-19T10:45:31;2.00;2.00;2.00
78316;PMS7003;67572;50.930;18.276;2023-09-19T10:48:37;3.50;1.75;1.75
78316;PMS7003;67572;50.930;18.276;2023-09-19T10:51:45;3.25;3.00;3.00
78316;PMS7003;67572;50.930;18.276;2023-09-19T10:54:52;5.50;4.00;4.00
78316;PMS7003;67572;50.930;18.276;2023-09-19T10:58:00;4.00;4.00;4.00
78316;PMS7003;67572;50.930;18.276;2023-09-19T11:01:05;4.00;4.00;4.00
78316;PMS7003;67572;50.930;18.276;2023-09-19T11:04:23;4.00;4.00;4.00
78316;PMS7003;67572;50.930;18.276;2023-09-19T11:07:29;2.00;2.00;2.00
78316;PMS7003;67572;50.930;18.276;2023-09-19T11:10:46;5.25;3.50;3.50
78316;PMS7003;67572;50.930;18.276;2023-09-19T11:29:25;0.75;0.75;0.75
78316;PMS7003;67572;50.930;18.276;2023-09-19T11:36:13;0.25;0.25;0.25
78316;PMS7003;67572;50.930;18.276;2023-09-19T11:39:25;2.00;2.00;2.00
78316;PMS7003;67572;50.930;18.276;2023-09-19T11:42:41;2.00;2.00;2.00
78316;PMS7003;67572;50.930;18.276;2023-09-19T11:46:07;3.00;3.00;3.00
78316;PMS7003;67572;50.930;18.276;2023-09-19T11:49:12;4.00;1.00;1.00
78316;PMS7003;67572;50.930;18.276;2023-09-19T11:52:21;6.00;2.00;2.00
78316;PMS7003;67572;50.930;18.276;2023-09-19T11:55:27;1.25;1.00;1.00
78316;PMS7003;67572;50.930;18.276;2023-09-19T11:58:34;2.00;0.80;0.80
78316;PMS7003;67572;50.930;18.276;2023-09-19T12:01:42;0.00;0.00;0.00
78316;PMS7003;67572;50.930;18.276;2023-09-19T12:04:59;1.25;1.00;1.00
78316;PMS7003;67572;50.930;18.276;2023-09-19T12:08:03;1.00;1.00;1.00
78316;PMS7003;67572;50.930;18.276;2023-09-19T12:11:13;2.00;2.00;2.00
78316;PMS7003;67572;50.930;18.276;2023-09-19T12:14:22;1.00;1.00;1.00
78316;PMS7003;67572;50.930;18.276;2023-09-19T12:17:35;0.40;0.40;0.00
78316;PMS7003;67572;50.930;18.276;2023-09-19T12:20:42;1.00;1.00;1.00
78316;PMS7003;67572;50.930;18.276;2023-09-19T12:23:58;2.40;1.20;1.20
78316;PMS7003;67572;50.930;18.276;2023-09-19T12:27:02;1.00;1.00;1.00
78316;PMS7003;67572;50.930;18.276;2023-09-19T12:30:08;1.00;1.00;1.00
78316;PMS7003;67572;50.930;18.276;2023-09-19T12:33:30;0.00;0.00;0.00
78316;PMS7003;67572;50.930;18.276;2023-09-19T12:36:33;12.67;12.67;12.67
78316;PMS7003;67572;50.930;18.276;2023-09-19T12:39:37;0.00;0.00;0.00
78316;PMS7003;67572;50.930;18.276;2023-09-19T12:42:43;1.00;1.00;1.00
78316;PMS7003;67572;50.930;18.276;2023-09-19T12:45:47;0.00;0.00;0.00
78316;PMS7003;67572;50.930;18.276;2023-09-19T12:52:20;1.40;0.40;0.40
78316;PMS7003;67572;50.930;18.276;2023-09-19T12:55:24;0.00;0.00;0.00
78316;PMS7003;67572;50.930;18.276;2023-09-19T12:58:29;0.00;0.00;0.00
78316;PMS7003;67572;50.930;18.276;2023-09-19T13:01:34;0.40;0.00;0.00
78316;PMS7003;67572;50.930;18.276;2023-09-19T13:04:43;0.80;0.80;0.80
78316;PMS7003;67572;50.930;18.276;2023-09-19T13:07:55;0.40;0.40;0.40
78316;PMS7003;67572;50.930;18.276;2023-09-19T13:10:59;1.00;1.00;1.00
78316;PMS7003;67572;50.930;18.276;2023-09-19T13:14:19;1.00;0.80;0.80
78316;PMS7003;67572;50.930;18.276;2023-09-19T13:17:25;1.00;1.00;1.00
78316;PMS7003;67572;50.930;18.276;2023-09-19T13:20:55;0.00;0.00;0.00
78316;PMS7003;67572;50.930;18.276;2023-09-19T13:24:18;1.00;0.00;0.00
78316;PMS7003;67572;50.930;18.276;2023-09-19T13:27:22;1.00;0.00;0.00
78316;PMS7003;67572;50.930;18.276;2023-09-19T13:30:26;1.00;1.00;1.00
78316;PMS7003;67572;50.930;18.276;2023-09-19T13:33:31;10.50;9.25;9.25
78316;PMS7003;67572;50.930;18.276;2023-09-19T13:36:36;1.00;1.00;1.00
78316;PMS7003;67572;50.930;18.276;2023-09-19T13:39:40;0.00;0.00;0.00
78316;PMS7003;67572;50.930;18.276;2023-09-19T13:42:49;0.40;0.40;0.40
78316;PMS7003;67572;50.930;18.276;2023-09-19T13:45:55;0.00;0.00;0.00
78316;PMS7003;67572;50.930;18.276;2023-09-19T13:48:59;0.80;0.00;0.00
78316;PMS7003;67572;50.930;18.276;2023-09-19T13:52:06;0.00;0.00;0.00
78316;PMS7003;67572;50.930;18.276;2023-09-19T13:55:09;1.20;0.00;0.00
78316;PMS7003;67572;50.930;18.276;2023-09-19T13:58:21;0.00;0.00;0.00
78316;PMS7003;67572;50.930;18.276;2023-09-19T14:01:25;0.00;0.00;0.00
78316;PMS7003;67572;50.930;18.276;2023-09-19T14:04:29;0.00;0.00;0.00
78316;PMS7003;67572;50.930;18.276;2023-09-19T14:07:34;0.00;0.00;0.00
78316;PMS7003;67572;50.930;18.276;2023-09-19T14:10:38;0.00;0.00;0.00
78316;PMS7003;67572;50.930;18.276;2023-09-19T14:13:42;1.00;0.00;0.00
78316;PMS7003;67572;50.930;18.276;2023-09-19T14:16:48;0.00;0.00;0.00
78316;PMS7003;67572;50.930;18.276;2023-09-19T14:19:52;0.00;0.00;0.00
78316;PMS7003;67572;50.930;18.276;2023-09-19T14:22:57;0.00;0.00;0.00
78316;PMS7003;67572;50.930;18.276;2023-09-19T14:26:02;0.40;0.40;0.40
78316;PMS7003;67572;50.930;18.276;2023-09-19T14:29:06;0.00;0.00;0.00
78316;PMS7003;67572;50.930;18.276;2023-09-19T14:32:11;1.00;0.00;0.00
78316;PMS7003;67572;50.930;18.276;2023-09-19T14:35:15;0.00;0.00;0.00
78316;PMS7003;67572;50.930;18.276;2023-09-19T14:38:20;0.00;0.00;0.00
78316;PMS7003;67572;50.930;18.276;2023-09-19T14:41:24;0.00;0.00;0.00
78316;PMS7003;67572;50.930;18.276;2023-09-19T14:44:28;0.00;0.00;0.00
78316;PMS7003;67572;50.930;18.276;2023-09-19T14:47:31;0.00;0.00;0.00
78316;PMS7003;67572;50.930;18.276;2023-09-19T14:50:35;0.40;0.00;0.00
78316;PMS7003;67572;50.930;18.276;2023-09-19T14:53:40;0.80;0.60;0.60
78316;PMS7003;67572;50.930;18.276;2023-09-19T14:56:44;0.00;0.00;0.00
78316;PMS7003;67572;50.930;18.276;2023-09-19T14:59:47;0.00;0.00;0.00
78316;PMS7003;67572;50.930;18.276;2023-09-19T15:02:51;0.00;0.00;0.00
78316;PMS7003;67572;50.930;18.276;2023-09-19T15:05:58;0.00;0.00;0.00
78316;PMS7003;67572;50.930;18.276;2023-09-19T15:09:03;0.00;0.00;0.00
78316;PMS7003;67572;50.930;18.276;2023-09-19T15:12:10;0.00;0.00;0.00
78316;PMS7003;67572;50.930;18.276;2023-09-19T15:15:16;1.00;0.00;0.00
78316;PMS7003;67572;50.930;18.276;2023-09-19T15:18:19;0.00;0.00;0.00
78316;PMS7003;67572;50.930;18.276;2023-09-19T15:21:23;0.00;0.00;0.00
78316;PMS7003;67572;50.930;18.276;2023-09-19T15:24:28;0.00;0.00;0.00
78316;PMS7003;67572;50.930;18.276;2023-09-19T15:27:31;1.00;0.00;0.00
78316;PMS7003;67572;50.930;18.276;2023-09-19T15:30:36;0.00;0.00;0.00
78316;PMS7003;67572;50.930;18.276;2023-09-19T15:33:40;1.00;0.00;0.00
78316;PMS7003;67572;50.930;18.276;2023-09-19T15:36:46;0.00;0.00;0.00
78316;PMS7003;67572;50.930;18.276;2023-09-19T15:39:50;1.00;0.00;0.00
78316;PMS7003;67572;50.930;18.276;2023-09-19T15:42:54;0.00;0.00;0.00
78316;PMS7003;67572;50.930;18.276;2023-09-19T15:46:00;0.20;0.00;0.00
78316;PMS7003;67572;50.930;18.276;2023-09-19T15:49:04;0.00;0.00;0.00
78316;PMS7003;67572;50.930;18.276;2023-09-19T15:52:09;4.00;4.00;4.00
78316;PMS7003;67572;50.930;18.276;2023-09-19T15:55:13;0.00;0.00;0.00
78316;PMS7003;67572;50.930;18.276;2023-09-19T15:58:16;0.00;0.00;0.00
78316;PMS7003;67572;50.930;18.276;2023-09-19T16:01:20;0.00;0.00;0.00
78316;PMS7003;67572;50.930;18.276;2023-09-19T16:04:24;0.00;0.00;0.00
78316;PMS7003;67572;50.930;18.276;2023-09-19T16:07:27;1.00;1.00;1.00
78316;PMS7003;67572;50.930;18.276;2023-09-19T16:10:35;0.00;0.00;0.00
78316;PMS7003;67572;50.930;18.276;2023-09-19T16:13:40;0.00;0.00;0.00
78316;PMS7003;67572;50.930;18.276;2023-09-19T16:16:45;0.00;0.00;0.00
78316;PMS7003;67572;50.930;18.276;2023-09-19T16:19:48;0.00;0.00;0.00
78316;PMS7003;67572;50.930;18.276;2023-09-19T16:22:52;0.00;0.00;0.00
78316;PMS7003;67572;50.930;18.276;2023-09-19T16:26:01;0.00;0.00;0.00
78316;PMS7003;67572;50.930;18.276;2023-09-19T16:29:06;0.50;0.00;0.00
78316;PMS7003;67572;50.930;18.276;2023-09-19T16:32:11;0.00;0.00;0.00
78316;PMS7003;67572;50.930;18.276;2023-09-19T16:35:15;0.25;0.25;0.25
78316;PMS7003;67572;50.930;18.276;2023-09-19T16:38:19;0.00;0.00;0.00
78316;PMS7003;67572;50.930;18.276;2023-09-19T16:41:23;0.00;0.00;0.00
78316;PMS7003;67572;50.930;18.276;2023-09-19T16:44:27;0.00;0.00;0.00
78316;PMS7003;67572;50.930;18.276;2023-09-19T16:47:31;0.00;0.00;0.00
78316;PMS7003;67572;50.930;18.276;2023-09-19T16:50:35;0.00;0.00;0.00
78316;PMS7003;67572;50.930;18.276;2023-09-19T16:53:40;0.00;0.00;0.00
78316;PMS7003;67572;50.930;18.276;2023-09-19T16:56:45;1.00;1.00;1.00
78316;PMS7003;67572;50.930;18.276;2023-09-19T16:59:48;0.00;0.00;0.00
78316;PMS7003;67572;50.930;18.276;2023-09-19T17:02:52;0.25;0.25;0.25
78316;PMS7003;67572;50.930;18.276;2023-09-19T17:06:00;0.75;0.75;0.75
78316;PMS7003;67572;50.930;18.276;2023-09-19T17:09:05;0.00;0.00;0.00
78316;PMS7003;67572;50.930;18.276;2023-09-19T17:12:11;0.25;0.00;0.00
78316;PMS7003;67572;50.930;18.276;2023-09-19T17:15:16;0.00;0.00;0.00
78316;PMS7003;67572;50.930;18.276;2023-09-19T17:18:19;0.00;0.00;0.00
78316;PMS7003;67572;50.930;18.276;2023-09-19T17:21:22;0.00;0.00;0.00
78316;PMS7003;67572;50.930;18.276;2023-09-19T17:24:28;0.00;0.00;0.00
78316;PMS7003;67572;50.930;18.276;2023-09-19T17:27:32;0.00;0.00;0.00
78316;PMS7003;67572;50.930;18.276;2023-09-19T17:30:36;0.00;0.00;0.00
78316;PMS7003;67572;50.930;18.276;2023-09-19T17:33:41;1.00;0.00;0.00
78316;PMS7003;67572;50.930;18.276;2023-09-19T17:36:45;0.00;0.00;0.00
78316;PMS7003;67572;50.930;18.276;2023-09-19T17:39:49;1.00;1.00;1.00
78316;PMS7003;67572;50.930;18.276;2023-09-19T17:42:54;0.00;0.00;0.00
78316;PMS7003;67572;50.930;18.276;2023-09-19T17:46:07;0.00;0.00;0.00
78316;PMS7003;67572;50.930;18.276;2023-09-19T17:49:12;0.00;0.00;0.00
78316;PMS7003;67572;50.930;18.276;2023-09-19T17:52:15;0.00;0.00;0.00
78316;PMS7003;67572;50.930;18.276;2023-09-19T17:55:20;0.67;0.67;0.67
78316;PMS7003;67572;50.930;18.276;2023-09-19T17:58:25;3.00;0.33;0.33
78316;PMS7003;67572;50.930;18.276;2023-09-19T18:01:29;0.00;0.00;0.00